sensor_id;sensor_type;location;lat;lon;timestamp;pressure;altitude;pressure_sealevel;temperature;humidity
48517;BME280;34310;51.904;4.256;2024-03-08T00:02:10;101895.34;;;16.13;59.19
48517;BME280;34310;51.904;4.256;2024-03-08T00:04:37;101896.78;;;16.21;59.10
48517;BME280;34310;51.904;4.256;2024-03-08T00:07:04;101893.56;;;16.25;59.13
48517;BME280;34310;51.904;4.256;2024-03-08T00:09:30;101878.03;;;16.26;58.84
48517;BME280;34310;51.904;4.256;2024-03-08T00:11:57;101884.44;;;16.31;58.92
48517;BME280;34310;51.904;4.256;2024-03-08T00:14:24;101876.78;;;16.34;58.57
48517;BME280;34310;51.904;4.256;2024-03-08T00:16:50;101872.50;;;16.35;58.58
48517;BME280;34310;51.904;4.256;2024-03-08T00:19:17;101872.69;;;16.38;58.50
48517;BME280;34310;51.904;4.256;2024-03-08T00:21:43;101872.78;;;16.39;58.46
48517;BME280;34310;51.904;4.256;2024-03-08T00:24:10;101865.75;;;16.38;58.67
48517;BME280;34310;51.904;4.256;2024-03-08T00:26:37;101864.16;;;16.40;58.47
48517;BME280;34310;51.904;4.256;2024-03-08T00:29:04;101863.06;;;16.37;58.47
48517;BME280;34310;51.904;4.256;2024-03-08T00:31:30;101863.16;;;16.38;58.54
48517;BME280;34310;51.904;4.256;2024-03-08T00:33:57;101862.25;;;16.38;58.33
48517;BME280;34310;51.904;4.256;2024-03-08T00:36:24;101851.81;;;16.38;58.49
48517;BME280;34310;51.904;4.256;2024-03-08T00:38:50;101854.25;;;16.35;58.44
48517;BME280;34310;51.904;4.256;2024-03-08T00:41:17;101856.94;;;16.36;58.49
48517;BME280;34310;51.904;4.256;2024-03-08T00:43:44;101844.63;;;16.34;58.57
48517;BME280;34310;51.904;4.256;2024-03-08T00:46:11;101849.66;;;16.31;58.62
48517;BME280;34310;51.904;4.256;2024-03-08T00:48:37;101850.53;;;16.31;58.19
48517;BME280;34310;51.904;4.256;2024-03-08T00:51:04;101857.38;;;16.29;58.45
48517;BME280;34310;51.904;4.256;2024-03-08T00:53:31;101850.34;;;16.28;58.52
48517;BME280;34310;51.904;4.256;2024-03-08T00:55:57;101851.06;;;16.26;58.42
48517;BME280;34310;51.904;4.256;2024-03-08T00:58:24;101845.66;;;16.23;58.59
48517;BME280;34310;51.904;4.256;2024-03-08T01:00:50;101848.97;;;16.20;58.76
48517;BME280;34310;51.904;4.256;2024-03-08T01:03:17;101847.03;;;16.18;58.76
48517;BME280;34310;51.904;4.256;2024-03-08T01:05:44;101842.53;;;16.15;58.48
48517;BME280;34310;51.904;4.256;2024-03-08T01:08:10;101833.53;;;16.10;58.90
48517;BME280;34310;51.904;4.256;2024-03-08T01:10:37;101842.16;;;16.09;58.80
48517;BME280;34310;51.904;4.256;2024-03-08T01:13:04;101825.22;;;16.02;58.87
48517;BME280;34310;51.904;4.256;2024-03-08T01:15:30;101828.63;;;16.01;58.89
48517;BME280;34310;51.904;4.256;2024-03-08T01:17:57;101835.47;;;15.99;59.01
48517;BME280;34310;51.904;4.256;2024-03-08T01:20:23;101833.47;;;15.95;58.95
48517;BME280;34310;51.904;4.256;2024-03-08T01:22:50;101818.44;;;15.91;59.09
48517;BME280;34310;51.904;4.256;2024-03-08T01:25:17;101823.41;;;15.88;59.29
48517;BME280;34310;51.904;4.256;2024-03-08T01:27:43;101815.41;;;15.85;58.94
48517;BME280;34310;51.904;4.256;2024-03-08T01:30:10;101813.41;;;15.81;59.21
48517;BME280;34310;51.904;4.256;2024-03-08T01:32:37;101803.59;;;15.77;59.33
48517;BME280;34310;51.904;4.256;2024-03-08T01:35:04;101805.22;;;15.75;59.33
48517;BME280;34310;51.904;4.256;2024-03-08T01:37:31;101802.22;;;15.69;59.37
48517;BME280;34310;51.904;4.256;2024-03-08T01:39:57;101802.03;;;15.66;59.53
48517;BME280;34310;51.904;4.256;2024-03-08T01:42:24;101806.13;;;15.62;59.66
48517;BME280;34310;51.904;4.256;2024-03-08T01:44:50;101799.00;;;15.60;59.77
48517;BME280;34310;51.904;4.256;2024-03-08T01:47:17;101800.25;;;15.53;59.91
48517;BME280;34310;51.904;4.256;2024-03-08T01:49:44;101798.34;;;15.50;59.90
48517;BME280;34310;51.904;4.256;2024-03-08T01:52:11;101803.34;;;15.47;59.86
48517;BME280;34310;51.904;4.256;2024-03-08T01:54:38;101793.56;;;15.43;59.93
48517;BME280;34310;51.904;4.256;2024-03-08T01:57:05;101788.16;;;15.40;60.13
48517;BME280;34310;51.904;4.256;2024-03-08T01:59:32;101795.66;;;15.36;60.32
48517;BME280;34310;51.904;4.256;2024-03-08T02:02:01;101784.00;;;15.31;60.30
48517;BME280;34310;51.904;4.256;2024-03-08T02:04:28;101786.50;;;15.29;60.28
48517;BME280;34310;51.904;4.256;2024-03-08T02:06:55;101789.81;;;15.27;60.35
48517;BME280;34310;51.904;4.256;2024-03-08T02:09:22;101779.19;;;15.24;60.58
48517;BME280;34310;51.904;4.256;2024-03-08T02:11:48;101776.41;;;15.21;60.56
48517;BME280;34310;51.904;4.256;2024-03-08T02:14:15;101768.41;;;15.17;60.54
48517;BME280;34310;51.904;4.256;2024-03-08T02:16:41;101763.88;;;15.15;60.70
48517;BME280;34310;51.904;4.256;2024-03-08T02:19:08;101755.78;;;15.10;60.75
48517;BME280;34310;51.904;4.256;2024-03-08T02:21:35;101758.28;;;15.09;60.77
48517;BME280;34310;51.904;4.256;2024-03-08T02:24:02;101747.59;;;15.04;60.92
48517;BME280;34310;51.904;4.256;2024-03-08T02:26:28;101747.34;;;15.01;60.88
48517;BME280;34310;51.904;4.256;2024-03-08T02:28:55;101744.53;;;14.98;60.95
48517;BME280;34310;51.904;4.256;2024-03-08T02:31:22;101736.63;;;14.97;60.94
48517;BME280;34310;51.904;4.256;2024-03-08T02:33:48;101735.53;;;14.93;60.97
48517;BME280;34310;51.904;4.256;2024-03-08T02:36:15;101726.44;;;14.86;61.13
48517;BME280;34310;51.904;4.256;2024-03-08T02:38:41;101736.81;;;14.86;61.08
48517;BME280;34310;51.904;4.256;2024-03-08T02:41:08;101724.53;;;14.84;61.23
48517;BME280;34310;51.904;4.256;2024-03-08T02:43:35;101730.63;;;14.84;61.33
48517;BME280;34310;51.904;4.256;2024-03-08T02:46:01;101726.81;;;14.79;61.20
48517;BME280;34310;51.904;4.256;2024-03-08T02:48:28;101713.38;;;14.73;61.12
48517;BME280;34310;51.904;4.256;2024-03-08T02:50:55;101724.00;;;14.76;61.48
48517;BME280;34310;51.904;4.256;2024-03-08T02:53:21;101715.97;;;14.73;61.54
48517;BME280;34310;51.904;4.256;2024-03-08T02:55:48;101708.88;;;14.71;61.30
48517;BME280;34310;51.904;4.256;2024-03-08T02:58:14;101708.78;;;14.69;61.46
48517;BME280;34310;51.904;4.256;2024-03-08T03:00:41;101704.28;;;14.67;61.55
48517;BME280;34310;51.904;4.256;2024-03-08T03:03:08;101701.56;;;14.65;61.44
48517;BME280;34310;51.904;4.256;2024-03-08T03:05:35;101688.97;;;14.58;61.96
48517;BME280;34310;51.904;4.256;2024-03-08T03:08:02;101697.38;;;14.67;62.26
48517;BME280;34310;51.904;4.256;2024-03-08T03:10:29;101691.13;;;14.77;62.28
48517;BME280;34310;51.904;4.256;2024-03-08T03:12:55;101690.53;;;14.94;61.56
48517;BME280;34310;51.904;4.256;2024-03-08T03:15:22;101691.47;;;15.21;60.88
48517;BME280;34310;51.904;4.256;2024-03-08T03:17:53;101688.16;;;15.50;60.04
48517;BME280;34310;51.904;4.256;2024-03-08T03:20:19;101677.25;;;15.69;59.57
48517;BME280;34310;51.904;4.256;2024-03-08T03:22:46;101676.09;;;15.92;59.22
48517;BME280;34310;51.904;4.256;2024-03-08T03:25:13;101677.75;;;16.04;58.75
48517;BME280;34310;51.904;4.256;2024-03-08T03:27:39;101675.22;;;16.19;58.25
48517;BME280;34310;51.904;4.256;2024-03-08T03:30:06;101666.25;;;16.29;58.12
48517;BME280;34310;51.904;4.256;2024-03-08T03:32:33;101659.69;;;16.35;57.78
48517;BME280;34310;51.904;4.256;2024-03-08T03:34:59;101667.94;;;16.43;57.99
48517;BME280;34310;51.904;4.256;2024-03-08T03:37:26;101669.16;;;16.48;57.60
48517;BME280;34310;51.904;4.256;2024-03-08T03:39:53;101658.81;;;16.50;57.54
48517;BME280;34310;51.904;4.256;2024-03-08T03:42:19;101656.41;;;16.53;57.56
48517;BME280;34310;51.904;4.256;2024-03-08T03:44:47;101658.28;;;16.55;57.19
48517;BME280;34310;51.904;4.256;2024-03-08T03:47:15;101668.97;;;16.60;57.21
48517;BME280;34310;51.904;4.256;2024-03-08T03:49:41;101654.22;;;16.60;57.40
48517;BME280;34310;51.904;4.256;2024-03-08T03:52:08;101652.44;;;16.59;57.46
48517;BME280;34310;51.904;4.256;2024-03-08T03:54:35;101657.84;;;16.62;57.28
48517;BME280;34310;51.904;4.256;2024-03-08T03:57:02;101651.81;;;16.63;57.21
48517;BME280;34310;51.904;4.256;2024-03-08T03:59:29;101640.31;;;16.60;57.48
48517;BME280;34310;51.904;4.256;2024-03-08T04:01:55;101653.44;;;16.61;57.07
48517;BME280;34310;51.904;4.256;2024-03-08T04:04:22;101637.69;;;16.60;57.37
48517;BME280;34310;51.904;4.256;2024-03-08T04:06:49;101643.00;;;16.61;57.23
48517;BME280;34310;51.904;4.256;2024-03-08T04:09:15;101640.22;;;16.58;57.10
48517;BME280;34310;51.904;4.256;2024-03-08T04:11:42;101639.22;;;16.56;57.00
48517;BME280;34310;51.904;4.256;2024-03-08T04:14:09;101634.91;;;16.57;57.32
48517;BME280;34310;51.904;4.256;2024-03-08T04:16:35;101638.25;;;16.54;57.17
48517;BME280;34310;51.904;4.256;2024-03-08T04:19:02;101632.84;;;16.51;57.20
48517;BME280;34310;51.904;4.256;2024-03-08T04:21:30;101628.53;;;16.52;57.01
48517;BME280;34310;51.904;4.256;2024-03-08T04:23:56;101612.72;;;16.49;57.43
48517;BME280;34310;51.904;4.256;2024-03-08T04:26:23;101615.00;;;16.44;57.22
48517;BME280;34310;51.904;4.256;2024-03-08T04:28:49;101619.41;;;16.45;57.29
48517;BME280;34310;51.904;4.256;2024-03-08T04:31:16;101625.34;;;16.42;57.13
48517;BME280;34310;51.904;4.256;2024-03-08T04:33:43;101632.19;;;16.40;57.28
48517;BME280;34310;51.904;4.256;2024-03-08T04:36:09;101622.38;;;16.36;57.52
48517;BME280;34310;51.904;4.256;2024-03-08T04:38:36;101626.53;;;16.33;57.38
48517;BME280;34310;51.904;4.256;2024-03-08T04:41:03;101623.72;;;16.30;57.42
48517;BME280;34310;51.904;4.256;2024-03-08T04:43:30;101615.66;;;16.25;57.61
48517;BME280;34310;51.904;4.256;2024-03-08T04:45:56;101611.97;;;16.22;57.65
48517;BME280;34310;51.904;4.256;2024-03-08T04:48:23;101615.16;;;16.18;57.44
48517;BME280;34310;51.904;4.256;2024-03-08T04:50:50;101609.59;;;16.11;57.69
48517;BME280;34310;51.904;4.256;2024-03-08T04:53:16;101606.97;;;16.11;57.65
48517;BME280;34310;51.904;4.256;2024-03-08T04:55:43;101611.09;;;16.08;57.58
48517;BME280;34310;51.904;4.256;2024-03-08T04:58:09;101598.53;;;16.01;57.93
48517;BME280;34310;51.904;4.256;2024-03-08T05:00:36;101606.25;;;15.99;57.88
48517;BME280;34310;51.904;4.256;2024-03-08T05:03:03;101599.78;;;15.93;57.87
48517;BME280;34310;51.904;4.256;2024-03-08T05:05:30;101597.88;;;15.90;57.84
48517;BME280;34310;51.904;4.256;2024-03-08T05:07:57;101594.97;;;15.86;57.93
48517;BME280;34310;51.904;4.256;2024-03-08T05:10:23;101592.81;;;15.78;57.94
48517;BME280;34310;51.904;4.256;2024-03-08T05:12:50;101593.59;;;15.77;58.28
48517;BME280;34310;51.904;4.256;2024-03-08T05:15:19;101590.53;;;15.70;58.11
48517;BME280;34310;51.904;4.256;2024-03-08T05:17:46;101587.84;;;15.68;58.39
48517;BME280;34310;51.904;4.256;2024-03-08T05:20:13;101594.56;;;15.65;58.67
48517;BME280;34310;51.904;4.256;2024-03-08T05:22:39;101590.75;;;15.60;58.69
48517;BME280;34310;51.904;4.256;2024-03-08T05:25:06;101584.31;;;15.55;58.55
48517;BME280;34310;51.904;4.256;2024-03-08T05:27:33;101581.53;;;15.52;58.81
48517;BME280;34310;51.904;4.256;2024-03-08T05:30:00;101588.25;;;15.48;59.07
48517;BME280;34310;51.904;4.256;2024-03-08T05:32:26;101581.78;;;15.41;58.89
48517;BME280;34310;51.904;4.256;2024-03-08T05:34:56;101580.69;;;15.38;59.19
48517;BME280;34310;51.904;4.256;2024-03-08T05:37:23;101580.41;;;15.33;59.12
48517;BME280;34310;51.904;4.256;2024-03-08T05:39:50;101582.88;;;15.32;59.22
48517;BME280;34310;51.904;4.256;2024-03-08T05:42:16;101576.47;;;15.27;59.38
48517;BME280;34310;51.904;4.256;2024-03-08T05:44:43;101580.59;;;15.23;59.50
48517;BME280;34310;51.904;4.256;2024-03-08T05:47:09;101578.59;;;15.19;59.50
48517;BME280;34310;51.904;4.256;2024-03-08T05:49:36;101581.81;;;15.15;59.71
48517;BME280;34310;51.904;4.256;2024-03-08T05:52:03;101572.81;;;15.10;59.61
48517;BME280;34310;51.904;4.256;2024-03-08T05:54:29;101572.44;;;15.04;59.84
48517;BME280;34310;51.904;4.256;2024-03-08T05:56:56;101572.44;;;15.04;59.54
48517;BME280;34310;51.904;4.256;2024-03-08T05:59:23;101565.09;;;14.98;59.87
48517;BME280;34310;51.904;4.256;2024-03-08T06:01:49;101559.72;;;14.95;59.88
48517;BME280;34310;51.904;4.256;2024-03-08T06:04:16;101565.72;;;14.94;59.90
48517;BME280;34310;51.904;4.256;2024-03-08T06:06:42;101558.63;;;14.92;59.88
48517;BME280;34310;51.904;4.256;2024-03-08T06:09:09;101560.13;;;14.88;60.07
48517;BME280;34310;51.904;4.256;2024-03-08T06:11:36;101557.13;;;14.82;60.20
48517;BME280;34310;51.904;4.256;2024-03-08T06:14:02;101555.34;;;14.81;60.20
48517;BME280;34310;51.904;4.256;2024-03-08T06:16:29;101553.34;;;14.77;60.19
48517;BME280;34310;51.904;4.256;2024-03-08T06:18:56;101549.75;;;14.75;60.58
48517;BME280;34310;51.904;4.256;2024-03-08T06:21:24;101541.81;;;14.73;60.72
48517;BME280;34310;51.904;4.256;2024-03-08T06:23:50;101550.13;;;14.81;61.12
48517;BME280;34310;51.904;4.256;2024-03-08T06:26:17;101554.22;;;14.91;60.96
48517;BME280;34310;51.904;4.256;2024-03-08T06:28:43;101545.41;;;15.02;60.62
48517;BME280;34310;51.904;4.256;2024-03-08T06:31:10;101545.78;;;15.21;60.22
48517;BME280;34310;51.904;4.256;2024-03-08T06:33:37;101548.13;;;15.44;59.42
48517;BME280;34310;51.904;4.256;2024-03-08T06:36:04;101532.19;;;15.66;58.93
48517;BME280;34310;51.904;4.256;2024-03-08T06:38:30;101528.34;;;15.89;58.39
48517;BME280;34310;51.904;4.256;2024-03-08T06:40:57;101532.97;;;16.08;57.96
48517;BME280;34310;51.904;4.256;2024-03-08T06:43:24;101528.59;;;16.22;57.47
48517;BME280;34310;51.904;4.256;2024-03-08T06:45:50;101525.88;;;16.35;57.12
48517;BME280;34310;51.904;4.256;2024-03-08T06:48:17;101527.28;;;16.45;57.24
48517;BME280;34310;51.904;4.256;2024-03-08T06:50:44;101518.06;;;16.50;56.75
48517;BME280;34310;51.904;4.256;2024-03-08T06:53:12;101513.03;;;16.53;56.69
48517;BME280;34310;51.904;4.256;2024-03-08T06:55:39;101520.47;;;16.61;56.65
48517;BME280;34310;51.904;4.256;2024-03-08T06:58:06;101518.75;;;16.62;56.45
48517;BME280;34310;51.904;4.256;2024-03-08T07:00:33;101526.06;;;16.67;56.62
48517;BME280;34310;51.904;4.256;2024-03-08T07:03:00;101524.50;;;16.71;56.34
48517;BME280;34310;51.904;4.256;2024-03-08T07:05:27;101511.22;;;16.66;56.32
48517;BME280;34310;51.904;4.256;2024-03-08T07:07:57;101515.88;;;16.72;56.29
48517;BME280;34310;51.904;4.256;2024-03-08T07:10:23;101514.25;;;16.74;56.33
48517;BME280;34310;51.904;4.256;2024-03-08T07:12:51;101519.47;;;16.74;56.28
48517;BME280;34310;51.904;4.256;2024-03-08T07:15:17;101510.66;;;16.72;56.47
48517;BME280;34310;51.904;4.256;2024-03-08T07:17:44;101516.78;;;16.72;56.32
48517;BME280;34310;51.904;4.256;2024-03-08T07:20:11;101514.16;;;16.72;56.48
48517;BME280;34310;51.904;4.256;2024-03-08T07:22:38;101510.66;;;16.72;56.50
48517;BME280;34310;51.904;4.256;2024-03-08T07:25:05;101516.78;;;16.72;56.29
48517;BME280;34310;51.904;4.256;2024-03-08T07:27:32;101514.91;;;16.70;56.26
48517;BME280;34310;51.904;4.256;2024-03-08T07:29:59;101508.63;;;16.66;56.54
48517;BME280;34310;51.904;4.256;2024-03-08T07:32:28;101501.06;;;16.56;54.43
48517;BME280;34310;51.904;4.256;2024-03-08T07:34:58;101504.38;;;16.39;55.08
48517;BME280;34310;51.904;4.256;2024-03-08T07:37:24;101503.88;;;16.30;55.57
48517;BME280;34310;51.904;4.256;2024-03-08T07:39:51;101506.53;;;16.17;55.65
48517;BME280;34310;51.904;4.256;2024-03-08T07:42:18;101498.28;;;16.09;56.15
48517;BME280;34310;51.904;4.256;2024-03-08T07:44:44;101494.34;;;16.01;56.44
48517;BME280;34310;51.904;4.256;2024-03-08T07:47:11;101498.28;;;15.94;56.73
48517;BME280;34310;51.904;4.256;2024-03-08T07:49:37;101490.19;;;15.90;56.81
48517;BME280;34310;51.904;4.256;2024-03-08T07:52:04;101486.41;;;15.85;57.20
48517;BME280;34310;51.904;4.256;2024-03-08T07:54:31;101487.03;;;15.80;57.18
48517;BME280;34310;51.904;4.256;2024-03-08T07:56:58;101495.56;;;15.78;57.49
48517;BME280;34310;51.904;4.256;2024-03-08T07:59:24;101487.47;;;15.73;57.28
48517;BME280;34310;51.904;4.256;2024-03-08T08:01:51;101472.31;;;15.66;57.59
48517;BME280;34310;51.904;4.256;2024-03-08T08:04:18;101474.81;;;15.65;57.64
48517;BME280;34310;51.904;4.256;2024-03-08T08:06:44;101477.34;;;15.63;57.74
48517;BME280;34310;51.904;4.256;2024-03-08T08:09:11;101470.00;;;15.58;58.06
48517;BME280;34310;51.904;4.256;2024-03-08T08:11:41;101475.81;;;15.54;58.05
48517;BME280;34310;51.904;4.256;2024-03-08T08:14:08;101472.41;;;15.55;57.83
48517;BME280;34310;51.904;4.256;2024-03-08T08:16:34;101465.13;;;15.49;58.02
48517;BME280;34310;51.904;4.256;2024-03-08T08:19:01;101459.94;;;15.49;58.08
48517;BME280;34310;51.904;4.256;2024-03-08T08:21:28;101467.66;;;15.47;58.39
48517;BME280;34310;51.904;4.256;2024-03-08T08:23:54;101457.06;;;15.44;58.37
48517;BME280;34310;51.904;4.256;2024-03-08T08:26:21;101455.97;;;15.41;58.39
48517;BME280;34310;51.904;4.256;2024-03-08T08:28:47;101446.38;;;15.40;58.56
48517;BME280;34310;51.904;4.256;2024-03-08T08:31:14;101447.09;;;15.37;58.63
48517;BME280;34310;51.904;4.256;2024-03-08T08:33:41;101446.09;;;15.35;58.68
48517;BME280;34310;51.904;4.256;2024-03-08T08:36:07;101433.69;;;15.31;58.73
48517;BME280;34310;51.904;4.256;2024-03-08T08:38:34;101428.47;;;15.31;59.03
48517;BME280;34310;51.904;4.256;2024-03-08T08:41:00;101427.47;;;15.29;58.69
48517;BME280;34310;51.904;4.256;2024-03-08T08:43:27;101427.28;;;15.26;58.86
48517;BME280;34310;51.904;4.256;2024-03-08T08:45:54;101428.00;;;15.24;58.94
48517;BME280;34310;51.904;4.256;2024-03-08T08:48:21;101426.22;;;15.23;58.98
48517;BME280;34310;51.904;4.256;2024-03-08T08:50:48;101433.13;;;15.22;59.14
48517;BME280;34310;51.904;4.256;2024-03-08T08:53:14;101433.03;;;15.21;59.41
48517;BME280;34310;51.904;4.256;2024-03-08T08:55:41;101433.84;;;15.19;59.32
48517;BME280;34310;51.904;4.256;2024-03-08T08:58:07;101426.75;;;15.17;59.36
48517;BME280;34310;51.904;4.256;2024-03-08T09:00:34;101432.75;;;15.16;59.29
48517;BME280;34310;51.904;4.256;2024-03-08T09:03:01;101425.75;;;15.15;59.17
48517;BME280;34310;51.904;4.256;2024-03-08T09:05:27;101424.84;;;15.14;59.64
48517;BME280;34310;51.904;4.256;2024-03-08T09:07:54;101418.38;;;15.08;59.62
48517;BME280;34310;51.904;4.256;2024-03-08T09:10:22;101411.47;;;15.08;59.54
48517;BME280;34310;51.904;4.256;2024-03-08T09:12:55;101415.06;;;15.10;59.43
48517;BME280;34310;51.904;4.256;2024-03-08T09:15:22;101411.47;;;15.08;59.98
48517;BME280;34310;51.904;4.256;2024-03-08T09:17:48;101400.09;;;15.06;59.73
48517;BME280;34310;51.904;4.256;2024-03-08T09:20:15;101402.69;;;15.06;59.48
48517;BME280;34310;51.904;4.256;2024-03-08T09:22:45;101397.41;;;15.05;59.72
48517;BME280;34310;51.904;4.256;2024-03-08T09:25:11;101382.47;;;15.02;59.77
48517;BME280;34310;51.904;4.256;2024-03-08T09:27:38;101388.69;;;15.04;59.90
48517;BME280;34310;51.904;4.256;2024-03-08T09:30:06;101376.38;;;15.02;59.76
48517;BME280;34310;51.904;4.256;2024-03-08T09:32:32;101378.16;;;15.03;59.96
48517;BME280;34310;51.904;4.256;2024-03-08T09:34:59;101369.47;;;15.02;60.15
48517;BME280;34310;51.904;4.256;2024-03-08T09:37:26;101365.16;;;15.03;59.74
48517;BME280;34310;51.904;4.256;2024-03-08T09:39:52;101353.78;;;15.01;59.83
48517;BME280;34310;51.904;4.256;2024-03-08T09:42:19;101354.75;;;15.03;60.03
48517;BME280;34310;51.904;4.256;2024-03-08T09:44:46;101354.66;;;15.01;59.97
48517;BME280;34310;51.904;4.256;2024-03-08T09:47:14;101338.25;;;15.02;59.92
48517;BME280;34310;51.904;4.256;2024-03-08T09:49:41;101341.75;;;15.03;59.81
48517;BME280;34310;51.904;4.256;2024-03-08T09:52:08;101337.38;;;15.02;60.11
48517;BME280;34310;51.904;4.256;2024-03-08T09:54:35;101314.69;;;14.99;59.83
48517;BME280;34310;51.904;4.256;2024-03-08T09:57:04;101307.78;;;15.00;59.96
48517;BME280;34310;51.904;4.256;2024-03-08T09:59:30;101309.56;;;15.01;59.98
48517;BME280;34310;51.904;4.256;2024-03-08T10:01:57;101304.47;;;15.02;60.00
48517;BME280;34310;51.904;4.256;2024-03-08T10:04:24;101289.75;;;15.03;60.24
48517;BME280;34310;51.904;4.256;2024-03-08T10:06:50;101292.25;;;15.01;60.14
48517;BME280;34310;51.904;4.256;2024-03-08T10:09:17;101287.97;;;15.02;60.13
48517;BME280;34310;51.904;4.256;2024-03-08T10:11:45;101284.56;;;15.03;60.08
48517;BME280;34310;51.904;4.256;2024-03-08T10:14:11;101282.06;;;15.04;60.08
48517;BME280;34310;51.904;4.256;2024-03-08T10:16:38;101282.06;;;15.04;60.17
48517;BME280;34310;51.904;4.256;2024-03-08T10:19:05;101279.47;;;15.04;60.03
48517;BME280;34310;51.904;4.256;2024-03-08T10:21:32;101262.97;;;15.04;60.07
48517;BME280;34310;51.904;4.256;2024-03-08T10:23:58;101262.25;;;15.06;60.08
48517;BME280;34310;51.904;4.256;2024-03-08T10:26:25;101262.16;;;15.05;60.21
48517;BME280;34310;51.904;4.256;2024-03-08T10:28:52;101261.44;;;15.07;60.30
48517;BME280;34310;51.904;4.256;2024-03-08T10:31:19;101246.66;;;15.06;60.27
48517;BME280;34310;51.904;4.256;2024-03-08T10:33:46;101244.94;;;15.07;60.42
48517;BME280;34310;51.904;4.256;2024-03-08T10:36:14;101237.16;;;15.07;60.25
48517;BME280;34310;51.904;4.256;2024-03-08T10:38:42;101236.34;;;15.08;60.18
48517;BME280;34310;51.904;4.256;2024-03-08T10:41:10;101238.22;;;15.10;60.21
48517;BME280;34310;51.904;4.256;2024-03-08T10:43:57;101223.44;;;15.09;60.42
48517;BME280;34310;51.904;4.256;2024-03-08T10:46:55;101223.50;;;15.11;60.40
48517;BME280;34310;51.904;4.256;2024-03-08T10:49:31;101226.22;;;15.12;60.19
48517;BME280;34310;51.904;4.256;2024-03-08T10:51:59;101208.81;;;15.11;60.42
48517;BME280;34310;51.904;4.256;2024-03-08T10:54:26;101204.59;;;15.13;60.42
48517;BME280;34310;51.904;4.256;2024-03-08T10:56:53;101199.31;;;15.12;60.20
48517;BME280;34310;51.904;4.256;2024-03-08T10:59:20;101200.28;;;15.14;60.46
48517;BME280;34310;51.904;4.256;2024-03-08T11:01:47;101195.97;;;15.14;60.30
48517;BME280;34310;51.904;4.256;2024-03-08T11:04:14;101189.16;;;15.16;60.41
48517;BME280;34310;51.904;4.256;2024-03-08T11:09:37;101177.06;;;15.17;60.24
48517;BME280;34310;51.904;4.256;2024-03-08T11:14:51;101164.22;;;15.20;60.40
48517;BME280;34310;51.904;4.256;2024-03-08T11:17:44;101162.50;;;15.21;60.30
48517;BME280;34310;51.904;4.256;2024-03-08T11:20:13;101153.09;;;15.23;60.11
48517;BME280;34310;51.904;4.256;2024-03-08T11:22:39;101163.59;;;15.24;60.23
48517;BME280;34310;51.904;4.256;2024-03-08T11:25:09;101151.47;;;15.25;60.19
48517;BME280;34310;51.904;4.256;2024-03-08T11:27:36;101148.94;;;15.26;60.16
48517;BME280;34310;51.904;4.256;2024-03-08T11:30:07;101138.56;;;15.26;60.19
48517;BME280;34310;51.904;4.256;2024-03-08T11:32:35;101134.97;;;15.24;59.93
48517;BME280;34310;51.904;4.256;2024-03-08T11:35:06;101140.50;;;15.30;59.87
48517;BME280;34310;51.904;4.256;2024-03-08T11:37:34;101142.22;;;15.30;59.92
48517;BME280;34310;51.904;4.256;2024-03-08T11:40:01;101132.53;;;15.27;60.10
48517;BME280;34310;51.904;4.256;2024-03-08T11:42:27;101146.81;;;15.34;59.95
48517;BME280;34310;51.904;4.256;2024-03-08T11:44:54;101136.50;;;15.35;59.97
48517;BME280;34310;51.904;4.256;2024-03-08T11:47:21;101133.88;;;15.35;59.74
48517;BME280;34310;51.904;4.256;2024-03-08T11:49:47;101126.97;;;15.36;59.93
48517;BME280;34310;51.904;4.256;2024-03-08T11:52:16;101128.84;;;15.38;59.84
48517;BME280;34310;51.904;4.256;2024-03-08T11:54:48;101134.94;;;15.39;59.94
48517;BME280;34310;51.904;4.256;2024-03-08T11:57:18;101124.63;;;15.40;59.61
48517;BME280;34310;51.904;4.256;2024-03-08T11:59:51;101108.84;;;15.37;59.82
48517;BME280;34310;51.904;4.256;2024-03-08T12:02:23;101109.09;;;15.42;59.82
48517;BME280;34310;51.904;4.256;2024-03-08T12:04:59;101109.19;;;15.43;59.68
48517;BME280;34310;51.904;4.256;2024-03-08T12:07:27;101104.88;;;15.44;59.84
48517;BME280;34310;51.904;4.256;2024-03-08T12:12:45;101088.53;;;15.46;59.59
48517;BME280;34310;51.904;4.256;2024-03-08T12:15:11;101085.13;;;15.47;59.80
48517;BME280;34310;51.904;4.256;2024-03-08T12:17:38;101085.19;;;15.49;59.70
48517;BME280;34310;51.904;4.256;2024-03-08T12:20:14;101079.09;;;15.48;59.69
48517;BME280;34310;51.904;4.256;2024-03-08T12:22:42;101075.78;;;15.51;59.43
48517;BME280;34310;51.904;4.256;2024-03-08T12:25:11;101064.47;;;15.50;59.62
48517;BME280;34310;51.904;4.256;2024-03-08T12:27:42;101065.53;;;15.54;59.70
48517;BME280;34310;51.904;4.256;2024-03-08T12:30:19;101058.63;;;15.55;59.73
48517;BME280;34310;51.904;4.256;2024-03-08T12:32:48;101055.19;;;15.56;59.58
48517;BME280;34310;51.904;4.256;2024-03-08T12:35:15;101058.00;;;15.59;59.64
48517;BME280;34310;51.904;4.256;2024-03-08T12:37:42;101056.28;;;15.59;59.56
48517;BME280;34310;51.904;4.256;2024-03-08T12:40:09;101048.38;;;15.58;59.47
48517;BME280;34310;51.904;4.256;2024-03-08T12:42:36;101047.66;;;15.60;59.40
48517;BME280;34310;51.904;4.256;2024-03-08T12:45:02;101040.06;;;15.63;59.30
48517;BME280;34310;51.904;4.256;2024-03-08T12:47:29;101047.06;;;15.64;59.39
48517;BME280;34310;51.904;4.256;2024-03-08T12:49:56;101044.53;;;15.66;59.37
48517;BME280;34310;51.904;4.256;2024-03-08T12:52:22;101038.50;;;15.67;59.27
48517;BME280;34310;51.904;4.256;2024-03-08T12:54:49;101038.59;;;15.68;59.30
48517;BME280;34310;51.904;4.256;2024-03-08T12:57:15;101023.03;;;15.70;59.03
48517;BME280;34310;51.904;4.256;2024-03-08T12:59:42;101014.19;;;15.66;59.39